createdAt,value
2022-12-29T00:00:18.167Z,99391.28
2022-12-29T00:02:46.195Z,99368.09
2022-12-29T00:05:14.185Z,99366.78
2022-12-29T00:07:43.466Z,99377.66
2022-12-29T00:10:11.349Z,99379.13
2022-12-29T00:12:56.849Z,99377.78
2022-12-29T00:15:40.164Z,99378.63
2022-12-29T00:18:08.298Z,99372.56
2022-12-29T00:20:54.203Z,99369.16
2022-12-29T00:23:40.970Z,99367.66
2022-12-29T00:26:31.255Z,99361.91
2022-12-29T00:29:16.543Z,99358.50
2022-12-29T00:32:14.787Z,99354.47
2022-12-29T00:34:56.515Z,99349.03
2022-12-29T00:37:44.430Z,99352.31
2022-12-29T00:40:31.365Z,99348.59
2022-12-29T00:43:16.866Z,99345.09
2022-12-29T00:45:44.880Z,99348.94
2022-12-29T00:48:12.790Z,99341.56
2022-12-29T00:50:39.704Z,99351.78
2022-12-29T00:53:07.616Z,99354.44
2022-12-29T00:55:39.933Z,99353.78
2022-12-29T00:58:07.821Z,99359.44
2022-12-29T01:00:35.978Z,99351.00
2022-12-29T01:03:04.158Z,99357.19
2022-12-29T01:05:32.139Z,99348.94
2022-12-29T01:08:00.036Z,99355.88
2022-12-29T01:10:26.952Z,99353.84
2022-12-29T01:12:56.233Z,99342.00
2022-12-29T01:15:24.124Z,99351.34
2022-12-29T01:17:52.023Z,99353.81
2022-12-29T01:20:20.258Z,99370.75
2022-12-29T01:22:48.394Z,99334.16
2022-12-29T01:25:16.388Z,99328.09
2022-12-29T01:27:46.169Z,99337.38
2022-12-29T01:30:15.701Z,99352.28
2022-12-29T01:32:43.588Z,99353.47
2022-12-29T01:35:11.826Z,99358.16
2022-12-29T01:37:39.793Z,99371.47
2022-12-29T01:40:08.492Z,99358.28
2022-12-29T01:42:36.367Z,99361.03
2022-12-29T01:45:04.342Z,99357.63
2022-12-29T01:47:36.272Z,99358.38
2022-12-29T01:50:06.752Z,99365.41
2022-12-29T01:52:35.265Z,99359.34
2022-12-29T01:55:03.422Z,99350.28
2022-12-29T01:57:33.016Z,99375.22
2022-12-29T02:00:04.449Z,99385.22
2022-12-29T02:02:34.338Z,99388.84
2022-12-29T02:05:04.577Z,99408.41
2022-12-29T02:07:32.917Z,99417.50
2022-12-29T02:10:01.268Z,99421.97
2022-12-29T02:12:29.163Z,99432.50
2022-12-29T02:14:58.319Z,99443.91
2022-12-29T02:17:32.065Z,99455.28
2022-12-29T02:20:37.003Z,99462.00
2022-12-29T02:23:15.767Z,99464.47
2022-12-29T02:25:59.990Z,99486.41
2022-12-29T02:28:56.258Z,99500.25
2022-12-29T02:31:26.143Z,99510.59
2022-12-29T02:33:59.323Z,99530.94
2022-12-29T02:36:30.386Z,99534.34
2022-12-29T02:39:03.654Z,99547.78
2022-12-29T02:41:33.465Z,99553.72
2022-12-29T02:44:04.934Z,99560.66
2022-12-29T02:46:36.739Z,99569.41
2022-12-29T02:49:08.560Z,99573.25
2022-12-29T02:51:39.804Z,99583.59
2022-12-29T02:54:25.307Z,99595.09
2022-12-29T02:56:53.248Z,99605.94
2022-12-29T02:59:21.129Z,99607.75
2022-12-29T03:02:19.938Z,99616.06
2022-12-29T03:05:05.706Z,99633.88
2022-12-29T03:07:37.298Z,99650.78
2022-12-29T03:10:09.602Z,99654.44
2022-12-29T03:12:57.428Z,99657.94
2022-12-29T03:15:43.793Z,99658.91
2022-12-29T03:18:15.758Z,99669.75
2022-12-29T03:20:45.879Z,99676.69
2022-12-29T03:23:13.767Z,99676.50
2022-12-29T03:25:42.762Z,99664.22
2022-12-29T03:28:11.917Z,99694.09
2022-12-29T03:30:39.864Z,99691.44
2022-12-29T03:33:09.838Z,99698.84
2022-12-29T03:35:40.032Z,99706.09
2022-12-29T03:38:11.976Z,99709.94
2022-12-29T03:40:40.126Z,99718.38
2022-12-29T03:43:08.011Z,99706.63
2022-12-29T03:45:35.905Z,99719.13
2022-12-29T03:48:03.868Z,99733.47
2022-12-29T03:50:31.720Z,99732.81
2022-12-29T03:53:01.012Z,99732.94
2022-12-29T03:55:28.901Z,99740.81
2022-12-29T03:57:56.828Z,99742.63
2022-12-29T04:00:24.704Z,99746.25
2022-12-29T04:02:52.736Z,99754.22
2022-12-29T04:05:20.714Z,99761.28
2022-12-29T04:07:48.679Z,99760.00
2022-12-29T04:10:18.054Z,99761.50
2022-12-29T04:12:47.606Z,99769.31
2022-12-29T04:15:15.721Z,99766.53
2022-12-29T04:17:43.641Z,99764.25
2022-12-29T04:20:29.035Z,99774.69
2022-12-29T04:23:01.628Z,99779.56
2022-12-29T04:25:30.959Z,99779.56
2022-12-29T04:27:58.854Z,99784.75
2022-12-29T04:30:26.807Z,99796.75
2022-12-29T04:32:54.708Z,99796.56
2022-12-29T04:35:22.591Z,99794.06
2022-12-29T04:37:50.478Z,99809.09
2022-12-29T04:40:18.521Z,99818.53
2022-12-29T04:42:47.781Z,99818.91
2022-12-29T04:45:15.795Z,99820.50
2022-12-29T04:47:43.695Z,99826.13
2022-12-29T04:50:11.661Z,99825.44
2022-12-29T04:52:39.547Z,99825.53
2022-12-29T04:55:08.182Z,99842.56
2022-12-29T04:57:36.116Z,99836.38
2022-12-29T05:00:06.512Z,99843.59
2022-12-29T05:02:35.615Z,99844.56
2022-12-29T05:05:03.681Z,99849.59
2022-12-29T05:07:31.660Z,99857.31
2022-12-29T05:09:59.563Z,99852.25
2022-12-29T05:12:27.431Z,99855.38
2022-12-29T05:14:55.304Z,99859.19
2022-12-29T05:17:24.643Z,99859.94
2022-12-29T05:19:52.602Z,99878.88
2022-12-29T05:22:20.564Z,99881.44
2022-12-29T05:24:48.455Z,99889.41
2022-12-29T05:27:16.344Z,99895.50
2022-12-29T05:29:44.245Z,99900.22
2022-12-29T05:32:12.228Z,99904.84
2022-12-29T05:34:41.479Z,99905.72
2022-12-29T05:37:09.380Z,99905.63
2022-12-29T05:39:37.262Z,99913.59
2022-12-29T05:42:05.248Z,99912.75
2022-12-29T05:44:33.152Z,99913.59
2022-12-29T05:47:01.169Z,99907.34
2022-12-29T05:49:29.142Z,99908.88
2022-12-29T05:51:58.445Z,99921.03
2022-12-29T05:54:26.325Z,99941.28
2022-12-29T05:56:54.246Z,99941.16
2022-12-29T05:59:22.327Z,99942.38
2022-12-29T06:01:50.452Z,99946.94
2022-12-29T06:04:18.540Z,99960.00
2022-12-29T06:06:46.423Z,99952.38
2022-12-29T06:09:15.894Z,99953.34
2022-12-29T06:11:44.077Z,99960.25
2022-12-29T06:14:12.079Z,99963.53
2022-12-29T06:16:40.034Z,99964.03
2022-12-29T06:19:07.976Z,99958.44
2022-12-29T06:21:36.075Z,99964.72
2022-12-29T06:24:03.970Z,99971.22
2022-12-29T06:26:33.426Z,99980.47
2022-12-29T06:29:01.309Z,99973.69
2022-12-29T06:31:29.274Z,99969.63
2022-12-29T06:33:57.209Z,100007.53
2022-12-29T06:36:25.117Z,100035.38
2022-12-29T06:38:54.233Z,100006.66
2022-12-29T06:41:26.919Z,100013.28
2022-12-29T06:43:59.411Z,100014.88
2022-12-29T06:46:27.353Z,100020.94
2022-12-29T06:48:55.279Z,100019.16
2022-12-29T06:51:23.175Z,100017.75
2022-12-29T06:53:51.045Z,100012.69
2022-12-29T06:56:18.956Z,100008.53
2022-12-29T06:58:46.839Z,100025.53
2022-12-29T07:01:16.221Z,100029.41
2022-12-29T07:03:44.421Z,100034.22
2022-12-29T07:06:12.305Z,100038.09
2022-12-29T07:08:40.523Z,100035.78
2022-12-29T07:11:08.430Z,100041.56
2022-12-29T07:13:36.323Z,100069.44
2022-12-29T07:16:07.611Z,100074.38
2022-12-29T07:18:36.973Z,100066.00
2022-12-29T07:21:05.077Z,100066.38
2022-12-29T07:23:32.975Z,100070.00
2022-12-29T07:26:02.179Z,100077.66
2022-12-29T07:28:30.382Z,100069.91
2022-12-29T07:30:58.293Z,100072.47
2022-12-29T07:33:26.235Z,100081.06
2022-12-29T07:35:55.488Z,100084.38
2022-12-29T07:38:23.370Z,100086.59
2022-12-29T07:40:51.331Z,100100.19
2022-12-29T07:43:19.214Z,100103.09
2022-12-29T07:45:47.144Z,100093.75
2022-12-29T07:48:15.522Z,100100.38
2022-12-29T07:50:43.504Z,100093.09
2022-12-29T07:53:12.812Z,100105.91
2022-12-29T07:55:40.685Z,100102.16
2022-12-29T07:58:08.564Z,100101.81
2022-12-29T08:00:36.617Z,100095.31
2022-12-29T08:03:04.635Z,100090.50
2022-12-29T08:05:32.550Z,100097.41
2022-12-29T08:08:00.496Z,100100.56
2022-12-29T08:10:29.825Z,100085.97
2022-12-29T08:12:57.736Z,100092.94
2022-12-29T08:15:30.442Z,100083.94
2022-12-29T08:18:00.390Z,100089.00
2022-12-29T08:20:28.269Z,100097.84
2022-12-29T08:22:56.357Z,100108.13
2022-12-29T08:25:24.301Z,100113.28
2022-12-29T08:27:53.754Z,100110.41
2022-12-29T08:30:21.626Z,100125.16
2022-12-29T08:32:49.767Z,100136.66
2022-12-29T08:35:17.793Z,100125.91
2022-12-29T08:37:46.397Z,100134.75
2022-12-29T08:40:15.008Z,100150.81
2022-12-29T08:42:42.917Z,100158.53
2022-12-29T08:45:12.754Z,100140.53
2022-12-29T08:47:40.718Z,100154.50
2022-12-29T08:50:09.470Z,100155.19
2022-12-29T08:52:37.377Z,100167.41
2022-12-29T08:55:05.851Z,100161.09
2022-12-29T08:57:33.750Z,100163.41
2022-12-29T09:00:01.660Z,100158.59
2022-12-29T09:02:31.274Z,100170.72
2022-12-29T09:05:00.093Z,100175.44
2022-12-29T09:07:28.124Z,100175.78
2022-12-29T09:09:55.958Z,100172.88
2022-12-29T09:12:23.823Z,100204.47
2022-12-29T09:14:52.083Z,100207.72
2022-12-29T09:17:37.774Z,100216.66
2022-12-29T09:20:08.777Z,100212.56
2022-12-29T09:22:36.849Z,100217.34
2022-12-29T09:25:05.158Z,100218.56
2022-12-29T09:27:33.255Z,100219.75
2022-12-29T09:30:01.130Z,100220.75
2022-12-29T09:32:33.716Z,100242.41
2022-12-29T09:35:02.172Z,100233.03
2022-12-29T09:37:31.594Z,100251.88
2022-12-29T09:39:59.654Z,100254.69
2022-12-29T09:42:29.497Z,100232.84
2022-12-29T09:45:02.784Z,100256.97
2022-12-29T09:47:30.817Z,100246.75
2022-12-29T09:50:01.135Z,100271.13
2022-12-29T09:52:30.743Z,100259.84
2022-12-29T09:55:05.334Z,100279.47
2022-12-29T09:57:38.308Z,100289.25
2022-12-29T10:00:09.160Z,100320.66
2022-12-29T10:02:41.260Z,100284.59
2022-12-29T10:05:20.736Z,100287.94
2022-12-29T10:07:52.482Z,100288.78
2022-12-29T10:10:29.365Z,100291.88
2022-12-29T10:13:04.553Z,100287.75
2022-12-29T10:15:42.387Z,100302.63
2022-12-29T10:18:20.461Z,100296.16
2022-12-29T10:20:51.903Z,100309.84
2022-12-29T10:23:28.465Z,100305.97
2022-12-29T10:25:58.499Z,100304.38
2022-12-29T10:28:32.300Z,100294.22
2022-12-29T10:31:08.310Z,100272.66
2022-12-29T10:33:38.613Z,100309.81
2022-12-29T10:36:12.777Z,100310.59
2022-12-29T10:38:42.644Z,100304.09
2022-12-29T10:41:15.948Z,100306.50
2022-12-29T10:43:46.862Z,100313.91
2022-12-29T10:46:16.230Z,100310.25
2022-12-29T10:48:46.375Z,100312.34
2022-12-29T10:51:23.209Z,100324.72
2022-12-29T10:53:52.954Z,100328.16
2022-12-29T10:56:31.714Z,100326.06
2022-12-29T10:59:00.805Z,100359.88
2022-12-29T11:01:31.710Z,100345.19
2022-12-29T11:04:03.439Z,100339.53
2022-12-29T11:06:31.458Z,100338.81
2022-12-29T11:09:00.046Z,100335.47
2022-12-29T11:11:31.386Z,100342.47
2022-12-29T11:14:00.600Z,100338.41
2022-12-29T11:16:32.930Z,100337.38
2022-12-29T11:19:01.224Z,100339.28
2022-12-29T11:21:33.354Z,100334.81
2022-12-29T11:24:01.904Z,100334.00
2022-12-29T11:26:34.464Z,100329.38
2022-12-29T11:29:16.966Z,100326.72
2022-12-29T11:31:45.482Z,100326.16
2022-12-29T11:34:19.371Z,100314.22
2022-12-29T11:36:47.296Z,100328.31
2022-12-29T11:39:30.094Z,100320.69
2022-12-29T11:41:59.528Z,100320.91
2022-12-29T11:44:27.586Z,100325.56
2022-12-29T11:46:55.898Z,100316.16
2022-12-29T11:49:25.087Z,100325.50
2022-12-29T11:51:53.498Z,100335.78
2022-12-29T11:54:24.303Z,100328.44
2022-12-29T11:56:52.209Z,100339.78
2022-12-29T11:59:42.018Z,100341.75
2022-12-29T12:02:42.435Z,100329.22
2022-12-29T12:05:23.453Z,100349.63
2022-12-29T12:07:54.164Z,100347.75
2022-12-29T12:10:25.481Z,100332.44
2022-12-29T12:12:58.334Z,100332.44
2022-12-29T12:15:30.478Z,100332.97
2022-12-29T12:18:04.479Z,100335.25
2022-12-29T12:20:39.718Z,100337.44
2022-12-29T12:23:13.875Z,100346.97
2022-12-29T12:25:42.857Z,100348.63
2022-12-29T12:28:13.175Z,100346.75
2022-12-29T12:30:44.092Z,100365.38
2022-12-29T12:33:18.150Z,100351.44
2022-12-29T12:35:48.740Z,100361.34
2022-12-29T12:38:22.107Z,100349.28
2022-12-29T12:41:02.550Z,100352.00
2022-12-29T12:43:45.801Z,100354.09
2022-12-29T12:46:21.960Z,100346.56
2022-12-29T12:49:15.011Z,100371.16
2022-12-29T12:51:46.557Z,100349.31
2022-12-29T12:54:26.054Z,100354.59
2022-12-29T12:56:59.634Z,100362.19
2022-12-29T12:59:34.847Z,100375.19
2022-12-29T13:02:10.531Z,100361.56
2022-12-29T13:04:50.718Z,100362.97
2022-12-29T13:07:23.206Z,100372.00
2022-12-29T13:09:58.382Z,100372.69
2022-12-29T13:12:33.994Z,100376.03
2022-12-29T13:15:08.186Z,100369.03
2022-12-29T13:17:39.313Z,100367.00
2022-12-29T13:20:12.569Z,100368.53
2022-12-29T13:22:42.862Z,100369.03
2022-12-29T13:25:20.760Z,100385.88
2022-12-29T13:27:50.892Z,100390.34
2022-12-29T13:30:20.159Z,100389.28
2022-12-29T13:32:57.173Z,100380.19
2022-12-29T13:35:37.793Z,100378.06
2022-12-29T13:38:07.337Z,100373.25
2022-12-29T13:40:36.671Z,100370.56
2022-12-29T13:43:04.559Z,100372.22
2022-12-29T13:45:33.348Z,100373.88
2022-12-29T13:48:05.592Z,100372.22
2022-12-29T13:50:35.505Z,100371.78
2022-12-29T13:53:06.007Z,100379.44
2022-12-29T13:55:36.824Z,100369.72
2022-12-29T13:58:07.142Z,100365.53
2022-12-29T14:00:50.092Z,100373.28
2022-12-29T14:03:45.896Z,100370.16
2022-12-29T14:06:18.989Z,100368.34
2022-12-29T14:08:46.954Z,100363.81
2022-12-29T14:11:16.665Z,100372.44
2022-12-29T14:13:45.439Z,100374.22
2022-12-29T14:16:23.589Z,100383.75
2022-12-29T14:18:55.084Z,100405.91
2022-12-29T14:21:24.408Z,100409.31
2022-12-29T14:23:54.919Z,100416.88
2022-12-29T14:26:36.050Z,100414.34
2022-12-29T14:29:44.650Z,100394.00
2022-12-29T14:32:40.050Z,100408.38
2022-12-29T14:35:43.933Z,100412.69
2022-12-29T14:38:19.540Z,100415.88
2022-12-29T14:40:48.304Z,100418.53
2022-12-29T14:43:19.359Z,100416.56
2022-12-29T14:45:51.003Z,100423.28
2022-12-29T14:48:35.717Z,100415.25
2022-12-29T14:51:18.130Z,100428.03
2022-12-29T14:53:47.974Z,100424.63
2022-12-29T14:56:16.270Z,100424.13
2022-12-29T14:58:48.829Z,100428.13
2022-12-29T15:01:29.249Z,100434.84
2022-12-29T15:03:59.868Z,100437.22
2022-12-29T15:06:31.162Z,100437.78
2022-12-29T15:09:03.038Z,100453.63
2022-12-29T15:11:43.368Z,100434.00
2022-12-29T15:14:33.572Z,100446.16
2022-12-29T15:17:01.667Z,100447.41
2022-12-29T15:19:29.957Z,100441.41
2022-12-29T15:21:59.272Z,100444.94
2022-12-29T15:24:27.224Z,100451.63
2022-12-29T15:26:55.704Z,100450.56
2022-12-29T15:29:34.533Z,100445.16
2022-12-29T15:32:03.138Z,100447.03
2022-12-29T15:34:32.224Z,100447.97
2022-12-29T15:37:02.115Z,100448.97
2022-12-29T15:39:31.315Z,100449.78
2022-12-29T15:42:02.224Z,100456.03
2022-12-29T15:44:31.986Z,100459.63
2022-12-29T15:46:59.967Z,100468.19
2022-12-29T15:49:32.242Z,100474.19
2022-12-29T15:52:01.924Z,100474.19
2022-12-29T15:54:33.206Z,100468.19
2022-12-29T15:57:01.124Z,100473.78
2022-12-29T15:59:29.928Z,100476.88
2022-12-29T16:01:58.261Z,100478.81
2022-12-29T16:04:26.565Z,100481.78
2022-12-29T16:06:58.420Z,100481.88
2022-12-29T16:09:37.373Z,100498.91
2022-12-29T16:12:06.561Z,100490.25
2022-12-29T16:14:36.386Z,100489.69
2022-12-29T16:17:05.850Z,100493.22
2022-12-29T16:19:35.607Z,100491.47
2022-12-29T16:22:04.047Z,100498.53
2022-12-29T16:24:33.540Z,100497.66
2022-12-29T16:27:05.391Z,100498.22
2022-12-29T16:29:33.340Z,100488.75
2022-12-29T16:32:04.113Z,100508.53
2022-12-29T16:34:33.152Z,100516.31
2022-12-29T16:37:01.477Z,100518.72
2022-12-29T16:39:33.222Z,100512.16
2022-12-29T16:42:01.140Z,100519.00
2022-12-29T16:44:31.057Z,100516.16
2022-12-29T16:47:20.296Z,100524.91
2022-12-29T16:49:52.401Z,100515.50
2022-12-29T16:52:22.232Z,100530.66
2022-12-29T16:54:52.001Z,100529.22
2022-12-29T16:57:27.172Z,100535.66
2022-12-29T16:59:57.955Z,100523.69
2022-12-29T17:02:26.984Z,100538.28
2022-12-29T17:04:55.072Z,100514.19
2022-12-29T17:07:24.129Z,100544.78
2022-12-29T17:09:54.146Z,100541.25
2022-12-29T17:12:23.692Z,100530.28
2022-12-29T17:14:52.900Z,100553.88
2022-12-29T17:17:24.128Z,100550.34
2022-12-29T17:19:53.684Z,100567.09
2022-12-29T17:22:25.557Z,100574.16
2022-12-29T17:24:53.800Z,100564.50
2022-12-29T17:27:27.464Z,100568.75
2022-12-29T17:29:58.182Z,100566.03
2022-12-29T17:32:27.553Z,100576.66
2022-12-29T17:34:55.448Z,100575.63
2022-12-29T17:37:38.444Z,100580.13
2022-12-29T17:40:08.104Z,100575.94
2022-12-29T17:42:38.873Z,100580.34
2022-12-29T17:45:07.762Z,100576.06
2022-12-29T17:47:37.059Z,100580.78
2022-12-29T17:50:05.846Z,100582.16
2022-12-29T17:52:33.851Z,100571.91
2022-12-29T17:55:01.948Z,100576.63
2022-12-29T17:57:29.934Z,100572.44
2022-12-29T17:59:57.958Z,100577.13
2022-12-29T18:02:30.600Z,100570.22
2022-12-29T18:05:00.543Z,100573.66
2022-12-29T18:07:35.366Z,100578.06
2022-12-29T18:10:03.762Z,100580.50
2022-12-29T18:12:36.418Z,100583.16
2022-12-29T18:15:05.101Z,100581.59
2022-12-29T18:17:33.218Z,100577.13
2022-12-29T18:20:02.501Z,100583.38
2022-12-29T18:22:30.543Z,100573.84
2022-12-29T18:24:58.502Z,100580.28
2022-12-29T18:27:27.580Z,100573.53
2022-12-29T18:29:55.535Z,100584.38
2022-12-29T18:32:23.563Z,100574.25
2022-12-29T18:34:51.458Z,100578.91
2022-12-29T18:37:22.151Z,100574.66
2022-12-29T18:39:50.033Z,100585.47
2022-12-29T18:42:18.651Z,100573.09
2022-12-29T18:44:46.763Z,100580.28
2022-12-29T18:47:14.749Z,100580.34
2022-12-29T18:49:42.787Z,100587.50
2022-12-29T18:52:13.647Z,100587.47
2022-12-29T18:54:42.903Z,100579.41
2022-12-29T18:57:10.958Z,100578.63
2022-12-29T18:59:39.134Z,100583.81
2022-12-29T19:02:07.131Z,100583.72
2022-12-29T19:04:35.129Z,100582.72
2022-12-29T19:07:03.152Z,100586.03
2022-12-29T19:09:31.058Z,100592.34
2022-12-29T19:12:00.388Z,100593.28
2022-12-29T19:14:28.334Z,100587.16
2022-12-29T19:16:56.250Z,100591.56
2022-12-29T19:19:24.198Z,100583.31
2022-12-29T19:21:56.527Z,100578.47
2022-12-29T19:24:24.502Z,100574.69
2022-12-29T19:26:52.419Z,100572.91
2022-12-29T19:29:22.010Z,100570.47
2022-12-29T19:31:50.086Z,100568.94
2022-12-29T19:34:18.281Z,100569.94
2022-12-29T19:36:46.431Z,100561.31
2022-12-29T19:39:14.353Z,100558.72
2022-12-29T19:41:42.343Z,100564.13
2022-12-29T19:44:10.288Z,100560.50
2022-12-29T19:46:39.839Z,100561.69
2022-12-29T19:49:07.881Z,100554.13
2022-12-29T19:51:35.799Z,100568.81
2022-12-29T19:54:03.685Z,100567.22
2022-12-29T19:56:32.346Z,100567.44
2022-12-29T19:59:00.248Z,100565.84
2022-12-29T20:01:28.365Z,100570.28
2022-12-29T20:03:57.850Z,100567.63
2022-12-29T20:06:25.743Z,100575.53
2022-12-29T20:08:54.591Z,100569.22
2022-12-29T20:11:22.715Z,100569.97
2022-12-29T20:13:50.606Z,100567.09
2022-12-29T20:16:20.482Z,100557.97
2022-12-29T20:18:48.857Z,100558.66
2022-12-29T20:21:19.370Z,100563.09
2022-12-29T20:23:47.759Z,100543.69
2022-12-29T20:26:16.459Z,100553.63
2022-12-29T20:28:44.393Z,100550.13
2022-12-29T20:31:16.667Z,100552.97
2022-12-29T20:33:44.641Z,100541.75
2022-12-29T20:36:15.165Z,100526.16
2022-12-29T20:38:44.759Z,100525.47
2022-12-29T20:41:13.362Z,100526.84
2022-12-29T20:43:41.555Z,100524.47
2022-12-29T20:46:09.624Z,100515.75
2022-12-29T20:48:37.625Z,100512.53
2022-12-29T20:51:05.849Z,100515.28
2022-12-29T20:53:33.794Z,100511.84
2022-12-29T20:56:04.920Z,100501.34
2022-12-29T20:58:32.813Z,100499.69
2022-12-29T21:01:02.183Z,100505.97
2022-12-29T21:03:30.400Z,100504.31
2022-12-29T21:06:00.140Z,100503.53
2022-12-29T21:08:28.138Z,100501.94
2022-12-29T21:10:56.155Z,100502.84
2022-12-29T21:13:25.476Z,100503.78
2022-12-29T21:15:57.353Z,100496.81
2022-12-29T21:18:25.319Z,100490.84
2022-12-29T21:20:57.231Z,100497.81
2022-12-29T21:23:25.263Z,100494.38
2022-12-29T21:25:53.726Z,100491.78
2022-12-29T21:28:22.097Z,100478.53
2022-12-29T21:30:51.717Z,100479.53
2022-12-29T21:33:19.808Z,100467.16
2022-12-29T21:35:48.478Z,100464.50
2022-12-29T21:38:16.530Z,100468.13
2022-12-29T21:40:44.467Z,100452.25
2022-12-29T21:43:12.330Z,100440.00
2022-12-29T21:45:39.313Z,100443.44
2022-12-29T21:48:25.036Z,100435.50
2022-12-29T21:51:11.229Z,100445.31
2022-12-29T21:53:40.008Z,100432.09
2022-12-29T21:56:08.724Z,100425.09
2022-12-29T21:58:54.379Z,100429.31
2022-12-29T22:01:39.761Z,100412.63
2022-12-29T22:04:26.525Z,100411.63
2022-12-29T22:07:12.062Z,100402.88
2022-12-29T22:09:57.449Z,100394.03
2022-12-29T22:12:42.596Z,100396.75
2022-12-29T22:15:11.106Z,100394.25
2022-12-29T22:17:41.299Z,100384.56
2022-12-29T22:20:14.313Z,100381.19
2022-12-29T22:22:42.231Z,100381.97
2022-12-29T22:25:10.634Z,100386.38
2022-12-29T22:27:38.521Z,100382.97
2022-12-29T22:30:07.641Z,100376.00
2022-12-29T22:32:35.603Z,100377.28
2022-12-29T22:35:07.769Z,100363.41
2022-12-29T22:37:38.367Z,100369.88
2022-12-29T22:40:07.306Z,100359.69
2022-12-29T22:42:35.250Z,100369.59
2022-12-29T22:45:03.182Z,100367.19
2022-12-29T22:47:31.142Z,100354.97
2022-12-29T22:49:59.139Z,100359.69
2022-12-29T22:52:27.004Z,100359.63
2022-12-29T22:54:58.200Z,100341.94
2022-12-29T22:57:30.533Z,100334.91
2022-12-29T22:59:58.409Z,100325.84
2022-12-29T23:02:26.865Z,100331.97
2022-12-29T23:05:03.899Z,100333.66
2022-12-29T23:07:32.168Z,100322.00
2022-12-29T23:10:01.400Z,100325.41
2022-12-29T23:12:30.627Z,100312.94
2022-12-29T23:14:58.575Z,100302.34
2022-12-29T23:17:26.517Z,100294.50
2022-12-29T23:19:54.553Z,100291.25
2022-12-29T23:22:25.221Z,100295.97
2022-12-29T23:24:53.191Z,100291.78
2022-12-29T23:27:22.445Z,100291.84
2022-12-29T23:29:50.403Z,100286.63
2022-12-29T23:32:18.314Z,100291.94
2022-12-29T23:34:46.194Z,100282.19
2022-12-29T23:37:14.229Z,100265.34
2022-12-29T23:39:42.091Z,100259.88
2022-12-29T23:42:11.299Z,100257.59
2022-12-29T23:44:40.596Z,100258.84
2022-12-29T23:47:08.585Z,100245.13
2022-12-29T23:49:36.553Z,100244.41
2022-12-29T23:52:04.457Z,100237.69
2022-12-29T23:54:32.359Z,100233.53
2022-12-29T23:57:00.252Z,100222.44
2022-12-29T23:59:28.341Z,100219.09
